createdAt,value
2023-11-01T00:02:01.592Z,8.70
2023-11-01T00:04:28.369Z,8.89
2023-11-01T00:06:55.016Z,8.95
2023-11-01T00:09:21.693Z,8.79
2023-11-01T00:11:48.341Z,8.86
2023-11-01T00:14:15.044Z,8.92
2023-11-01T00:16:41.729Z,8.79
2023-11-01T00:19:08.760Z,8.72
2023-11-01T00:21:35.865Z,8.97
2023-11-01T00:24:02.536Z,9.05
2023-11-01T00:26:29.322Z,9.11
2023-11-01T00:28:56.026Z,9.23
2023-11-01T00:31:22.914Z,9.25
2023-11-01T00:33:49.622Z,9.14
2023-11-01T00:36:16.361Z,9.11
2023-11-01T00:38:43.300Z,9.11
2023-11-01T00:41:10.016Z,9.01
2023-11-01T00:43:36.734Z,9.08
2023-11-01T00:46:03.649Z,9.19
2023-11-01T00:48:30.384Z,9.21
2023-11-01T00:50:57.011Z,9.21
2023-11-01T00:53:23.657Z,8.98
2023-11-01T00:55:50.320Z,8.99
2023-11-01T01:00:43.716Z,9.10
2023-11-01T01:03:11.947Z,9.18
2023-11-01T01:05:38.813Z,9.06
2023-11-01T01:08:05.628Z,9.10
2023-11-01T01:10:32.783Z,9.02
2023-11-01T01:12:59.925Z,9.04
2023-11-01T01:15:26.956Z,9.02
2023-11-01T01:17:54.342Z,9.03
2023-11-01T01:20:21.147Z,9.08
2023-11-01T01:22:48.326Z,9.09
2023-11-01T01:25:15.122Z,8.84
2023-11-01T01:27:42.552Z,8.77
2023-11-01T01:30:10.198Z,8.72
2023-11-01T01:32:37.109Z,8.71
2023-11-01T01:35:04.151Z,8.64
2023-11-01T01:37:30.909Z,8.52
2023-11-01T01:39:57.548Z,8.43
2023-11-01T01:42:25.184Z,8.35
2023-11-01T01:44:52.271Z,8.19
2023-11-01T01:47:20.203Z,8.21
2023-11-01T01:49:47.244Z,8.17
2023-11-01T01:52:14.790Z,8.17
2023-11-01T01:54:42.014Z,7.98
2023-11-01T01:57:10.996Z,7.93
2023-11-01T01:59:38.113Z,7.79
2023-11-01T02:02:05.581Z,7.79
2023-11-01T02:04:32.445Z,7.83
2023-11-01T02:07:00.065Z,7.78
2023-11-01T02:09:26.792Z,7.71
2023-11-01T02:11:53.606Z,7.72
2023-11-01T02:14:22.588Z,7.59
2023-11-01T02:16:51.673Z,7.54
2023-11-01T02:19:18.477Z,7.50
2023-11-01T02:21:45.485Z,7.35
2023-11-01T02:24:12.191Z,7.39
2023-11-01T02:26:38.883Z,7.44
2023-11-01T02:29:06.443Z,7.42
2023-11-01T02:31:33.347Z,7.43
2023-11-01T02:34:00.217Z,7.32
2023-11-01T02:36:26.903Z,7.23
2023-11-01T02:38:53.689Z,7.22
2023-11-01T02:41:20.416Z,7.24
2023-11-01T02:43:47.089Z,7.28
2023-11-01T02:46:13.776Z,7.31
2023-11-01T02:48:40.446Z,7.29
2023-11-01T02:51:07.163Z,7.33
2023-11-01T02:53:33.802Z,7.32
2023-11-01T02:56:01.013Z,7.17
2023-11-01T02:58:29.800Z,7.12
2023-11-01T03:00:56.571Z,7.10
2023-11-01T03:03:23.385Z,7.08
2023-11-01T03:05:50.765Z,7.01
2023-11-01T03:08:17.404Z,6.94
2023-11-01T03:10:44.325Z,6.94
2023-11-01T03:13:10.979Z,6.93
2023-11-01T03:15:38.513Z,6.92
2023-11-01T03:18:06.151Z,6.93
2023-11-01T03:20:34.675Z,6.90
2023-11-01T03:23:02.352Z,6.88
2023-11-01T03:25:29.450Z,6.86
2023-11-01T03:27:56.289Z,6.81
2023-11-01T03:30:25.756Z,6.77
2023-11-01T03:32:52.663Z,6.79
2023-11-01T03:35:19.402Z,6.75
2023-11-01T03:37:46.073Z,6.80
2023-11-01T03:40:12.746Z,6.82
2023-11-01T03:42:39.427Z,6.86
2023-11-01T03:45:07.105Z,6.82
2023-11-01T03:47:33.823Z,6.83
2023-11-01T03:50:01.634Z,6.78
2023-11-01T03:52:28.695Z,6.80
2023-11-01T03:54:55.460Z,6.69
2023-11-01T03:57:22.240Z,6.62
2023-11-01T03:59:49.081Z,6.56
2023-11-01T04:02:15.929Z,6.53
2023-11-01T04:04:42.643Z,6.48
2023-11-01T04:07:09.320Z,6.53
2023-11-01T04:09:35.987Z,6.57
2023-11-01T04:12:02.648Z,6.64
2023-11-01T04:14:29.276Z,6.71
2023-11-01T04:16:57.229Z,6.71
2023-11-01T04:19:24.017Z,6.67
2023-11-01T04:21:50.688Z,6.54
2023-11-01T04:24:17.354Z,6.51
2023-11-01T04:26:44.093Z,6.42
2023-11-01T04:29:10.745Z,6.34
2023-11-01T04:31:37.480Z,6.28
2023-11-01T04:34:04.173Z,6.24
2023-11-01T04:36:30.842Z,6.24
2023-11-01T04:38:58.480Z,6.16
2023-11-01T04:41:29.073Z,6.16
2023-11-01T04:43:56.650Z,6.17
2023-11-01T04:46:23.447Z,6.17
2023-11-01T04:48:51.337Z,6.09
2023-11-01T04:51:18.395Z,6.07
2023-11-01T04:53:45.838Z,6.05
2023-11-01T04:56:12.605Z,6.07
2023-11-01T04:58:39.390Z,6.08
2023-11-01T05:01:07.497Z,6.03
2023-11-01T05:03:38.215Z,6.07
2023-11-01T05:06:06.373Z,6.11
2023-11-01T05:08:33.106Z,6.14
2023-11-01T05:11:00.626Z,6.14
2023-11-01T05:13:27.714Z,6.13
2023-11-01T05:15:55.406Z,6.00
2023-11-01T05:18:22.561Z,5.89
2023-11-01T05:20:49.396Z,5.93
2023-11-01T05:23:16.228Z,5.91
2023-11-01T05:25:42.916Z,5.90
2023-11-01T05:28:10.193Z,5.94
2023-11-01T05:30:36.839Z,5.98
2023-11-01T05:33:03.756Z,5.96
2023-11-01T05:35:30.547Z,5.85
2023-11-01T05:37:57.228Z,5.78
2023-11-01T05:40:23.967Z,5.70
2023-11-01T05:42:50.695Z,5.71
2023-11-01T05:45:18.429Z,5.70
2023-11-01T05:47:53.302Z,5.73
2023-11-01T05:50:26.268Z,5.78
2023-11-01T05:52:54.991Z,5.79
2023-11-01T05:55:29.798Z,5.81
2023-11-01T05:58:12.844Z,5.79
2023-11-01T06:00:40.203Z,5.86
2023-11-01T06:03:08.352Z,5.90
2023-11-01T06:05:40.258Z,5.85
2023-11-01T06:08:10.250Z,5.89
2023-11-01T06:10:37.603Z,5.99
2023-11-01T06:13:05.310Z,5.96
2023-11-01T06:15:31.968Z,5.93
2023-11-01T06:17:58.717Z,5.91
2023-11-01T06:20:25.886Z,5.99
2023-11-01T06:22:52.559Z,6.06
2023-11-01T06:25:21.342Z,6.02
2023-11-01T06:27:48.025Z,6.00
2023-11-01T06:30:15.141Z,5.96
2023-11-01T06:32:42.023Z,6.01
2023-11-01T06:35:09.374Z,6.11
2023-11-01T06:37:36.490Z,6.19
2023-11-01T06:40:04.033Z,6.13
2023-11-01T06:42:30.708Z,6.16
2023-11-01T06:44:58.024Z,6.23
2023-11-01T06:47:24.657Z,6.32
2023-11-01T06:49:51.614Z,6.41
2023-11-01T06:52:18.339Z,6.50
2023-11-01T06:54:45.275Z,6.56
2023-11-01T06:57:12.177Z,6.65
2023-11-01T06:59:40.356Z,6.61
2023-11-01T07:02:07.652Z,6.57
2023-11-01T07:04:34.554Z,6.60
2023-11-01T07:07:01.698Z,6.67
2023-11-01T07:09:28.511Z,6.77
2023-11-01T07:11:55.174Z,6.87
2023-11-01T07:14:21.886Z,6.91
2023-11-01T07:16:48.581Z,6.96
2023-11-01T07:19:15.951Z,7.09
2023-11-01T07:21:45.269Z,7.26
2023-11-01T07:24:13.939Z,7.47
2023-11-01T07:26:40.803Z,7.67
2023-11-01T07:29:07.487Z,8.00
2023-11-01T07:31:34.262Z,8.34
2023-11-01T07:34:00.999Z,8.65
2023-11-01T07:36:27.984Z,8.91
2023-11-01T07:38:54.812Z,9.25
2023-11-01T07:41:22.120Z,9.63
2023-11-01T07:43:48.954Z,10.00
2023-11-01T07:46:15.628Z,10.41
2023-11-01T07:48:42.325Z,10.87
2023-11-01T07:51:09.152Z,11.25
2023-11-01T07:53:36.154Z,11.67
2023-11-01T07:56:03.168Z,12.08
2023-11-01T07:58:30.738Z,12.46
2023-11-01T08:00:57.503Z,12.80
2023-11-01T08:03:25.406Z,13.00
2023-11-01T08:05:52.833Z,13.45
2023-11-01T08:08:19.678Z,13.85
2023-11-01T08:10:46.410Z,14.24
2023-11-01T08:13:13.172Z,14.51
2023-11-01T08:15:39.857Z,15.00
2023-11-01T08:18:06.705Z,15.57
2023-11-01T08:20:33.476Z,15.97
2023-11-01T08:23:00.307Z,16.61
2023-11-01T08:25:27.134Z,17.14
2023-11-01T08:27:53.979Z,17.63
2023-11-01T08:30:20.711Z,18.28
2023-11-01T08:32:47.384Z,18.83
2023-11-01T08:35:14.330Z,19.28
2023-11-01T08:37:41.471Z,19.35
2023-11-01T08:40:09.059Z,19.55
2023-11-01T08:42:36.239Z,19.68
2023-11-01T08:45:03.331Z,19.84
2023-11-01T08:47:39.478Z,20.12
2023-11-01T08:50:07.841Z,20.29
2023-11-01T08:52:34.562Z,20.38
2023-11-01T08:55:01.457Z,19.18
2023-11-01T08:57:29.014Z,19.28
2023-11-01T08:59:59.329Z,19.38
2023-11-01T09:02:29.825Z,19.89
2023-11-01T09:04:57.694Z,19.98
2023-11-01T09:07:24.992Z,19.94
2023-11-01T09:09:54.354Z,19.33
2023-11-01T09:12:21.531Z,19.34
2023-11-01T09:14:48.725Z,19.75
2023-11-01T09:17:15.677Z,19.70
2023-11-01T09:19:42.673Z,19.98
2023-11-01T09:22:09.728Z,20.17
2023-11-01T09:24:36.787Z,20.80
2023-11-01T09:27:04.431Z,21.27
2023-11-01T09:29:31.208Z,21.68
2023-11-01T09:31:58.043Z,21.84
2023-11-01T09:34:24.804Z,21.59
2023-11-01T09:36:52.919Z,21.71
2023-11-01T09:39:20.136Z,21.95
2023-11-01T09:41:54.730Z,22.19
2023-11-01T09:44:21.393Z,22.02
2023-11-01T09:46:51.312Z,22.21
2023-11-01T09:49:18.140Z,21.76
2023-11-01T09:51:45.881Z,21.41
2023-11-01T09:54:12.927Z,21.21
2023-11-01T09:56:43.918Z,21.36
2023-11-01T09:59:11.348Z,20.74
2023-11-01T10:01:38.842Z,20.16
2023-11-01T10:04:06.537Z,20.08
2023-11-01T10:06:36.759Z,20.55
2023-11-01T10:09:04.456Z,21.07
2023-11-01T10:11:32.786Z,21.50
2023-11-01T10:14:03.206Z,21.56
2023-11-01T10:16:31.880Z,21.38
2023-11-01T10:18:58.556Z,21.57
2023-11-01T10:21:28.659Z,22.12
2023-11-01T10:23:58.461Z,21.07
2023-11-01T10:26:32.356Z,20.94
2023-11-01T10:29:00.827Z,20.71
2023-11-01T10:31:27.582Z,20.83
2023-11-01T10:33:54.723Z,20.68
2023-11-01T10:36:22.213Z,20.72
2023-11-01T10:38:52.817Z,21.23
2023-11-01T10:41:19.943Z,21.48
2023-11-01T10:43:48.573Z,21.76
2023-11-01T10:46:16.972Z,21.71
2023-11-01T10:48:46.132Z,21.83
2023-11-01T10:51:13.055Z,21.68
2023-11-01T10:53:41.055Z,21.17
2023-11-01T10:56:08.562Z,21.44
2023-11-01T10:58:38.762Z,21.36
2023-11-01T11:01:05.395Z,21.25
2023-11-01T11:03:55.205Z,21.37
2023-11-01T11:06:34.997Z,21.64
2023-11-01T11:09:23.520Z,21.24
2023-11-01T11:12:18.619Z,21.06
2023-11-01T11:14:49.841Z,21.45
2023-11-01T11:17:20.575Z,21.56
2023-11-01T11:20:13.387Z,21.46
2023-11-01T11:23:14.299Z,21.71
2023-11-01T11:25:50.994Z,21.71
2023-11-01T11:28:23.484Z,21.40
2023-11-01T11:31:31.451Z,21.27
2023-11-01T11:34:00.911Z,21.58
2023-11-01T11:36:29.870Z,21.50
2023-11-01T11:39:03.164Z,21.41
2023-11-01T11:41:47.603Z,21.16
2023-11-01T11:44:20.973Z,21.06
2023-11-01T11:47:00.684Z,21.28
2023-11-01T11:49:30.243Z,21.21
2023-11-01T11:51:59.560Z,20.82
2023-11-01T11:54:33.679Z,20.51
2023-11-01T11:57:02.743Z,20.07
2023-11-01T11:59:30.062Z,19.81
2023-11-01T12:02:06.173Z,19.48
2023-11-01T12:04:38.620Z,19.85
2023-11-01T12:07:07.753Z,20.14
2023-11-01T12:09:34.707Z,20.15
2023-11-01T12:12:12.983Z,20.11
2023-11-01T12:14:41.133Z,20.13
2023-11-01T12:17:08.464Z,20.23
2023-11-01T12:19:44.950Z,20.37
2023-11-01T12:22:11.666Z,20.59
2023-11-01T12:24:38.178Z,20.39
2023-11-01T12:27:14.789Z,20.22
2023-11-01T12:29:51.260Z,20.40
2023-11-01T12:32:20.010Z,20.31
2023-11-01T12:34:49.799Z,20.19
2023-11-01T12:37:18.457Z,19.76
2023-11-01T12:40:11.596Z,19.46
2023-11-01T12:42:41.454Z,19.51
2023-11-01T12:45:09.785Z,19.33
2023-11-01T12:47:53.352Z,19.24
2023-11-01T12:50:21.603Z,18.84
2023-11-01T12:52:49.816Z,18.74
2023-11-01T12:55:17.251Z,18.44
2023-11-01T12:57:48.942Z,18.09
2023-11-01T13:00:17.377Z,17.99
2023-11-01T13:02:44.952Z,18.02
2023-11-01T13:05:12.955Z,17.95
2023-11-01T13:07:41.270Z,18.02
2023-11-01T13:10:11.007Z,18.09
2023-11-01T13:12:43.219Z,18.14
2023-11-01T13:15:10.431Z,18.15
2023-11-01T13:17:37.278Z,18.20
2023-11-01T13:20:04.026Z,18.19
2023-11-01T13:22:30.682Z,18.14
2023-11-01T13:24:57.463Z,18.18
2023-11-01T13:27:23.965Z,18.36
2023-11-01T13:29:52.058Z,18.19
2023-11-01T13:32:18.892Z,17.86
2023-11-01T13:34:45.431Z,17.35
2023-11-01T13:37:15.021Z,17.20
2023-11-01T13:39:41.823Z,16.75
2023-11-01T13:42:08.487Z,16.61
2023-11-01T13:44:35.404Z,16.56
2023-11-01T13:47:02.598Z,16.53
2023-11-01T13:49:29.365Z,16.31
2023-11-01T13:51:56.089Z,16.42
2023-11-01T13:54:22.724Z,16.40
2023-11-01T13:56:49.414Z,16.12
2023-11-01T13:59:16.167Z,16.06
2023-11-01T14:01:42.861Z,15.95
2023-11-01T14:04:09.696Z,15.81
2023-11-01T14:06:36.299Z,15.77
2023-11-01T14:09:04.844Z,15.75
2023-11-01T14:11:31.508Z,15.60
2023-11-01T14:13:58.180Z,15.50
2023-11-01T14:16:24.968Z,15.38
2023-11-01T14:18:51.621Z,15.20
2023-11-01T14:21:18.529Z,15.00
2023-11-01T14:23:47.916Z,14.90
2023-11-01T14:26:14.889Z,14.90
2023-11-01T14:28:42.602Z,14.95
2023-11-01T14:31:09.689Z,14.94
2023-11-01T14:33:36.941Z,14.85
2023-11-01T14:36:08.419Z,14.88
2023-11-01T14:38:35.616Z,14.97
2023-11-01T14:41:02.659Z,14.80
2023-11-01T14:43:29.363Z,14.78
2023-11-01T14:45:56.150Z,14.81
2023-11-01T14:48:22.989Z,14.86
2023-11-01T14:50:49.879Z,14.89
2023-11-01T14:53:16.695Z,14.83
2023-11-01T14:55:43.408Z,14.76
2023-11-01T14:58:10.088Z,14.66
2023-11-01T15:00:36.729Z,14.53
2023-11-01T15:03:03.607Z,14.45
2023-11-01T15:05:31.644Z,14.30
2023-11-01T15:07:58.373Z,14.22
2023-11-01T15:10:26.628Z,14.09
2023-11-01T15:12:53.729Z,14.10
2023-11-01T15:15:20.596Z,14.06
2023-11-01T15:17:51.052Z,14.04
2023-11-01T15:20:17.799Z,14.03
2023-11-01T15:22:44.743Z,13.96
2023-11-01T15:25:12.407Z,13.89
2023-11-01T15:27:39.071Z,13.86
2023-11-01T15:30:06.639Z,13.82
2023-11-01T15:32:33.396Z,13.83
2023-11-01T15:35:00.426Z,13.73
2023-11-01T15:37:28.225Z,13.71
2023-11-01T15:39:55.146Z,13.64
2023-11-01T15:42:23.278Z,13.61
2023-11-01T15:44:50.033Z,13.56
2023-11-01T15:47:16.786Z,13.55
2023-11-01T15:49:43.442Z,13.50
2023-11-01T15:52:10.100Z,13.48
2023-11-01T15:54:38.228Z,13.35
2023-11-01T15:57:07.170Z,13.31
2023-11-01T15:59:33.856Z,13.32
2023-11-01T16:02:00.637Z,13.29
2023-11-01T16:04:27.742Z,13.19
2023-11-01T16:06:54.627Z,13.04
2023-11-01T16:09:21.275Z,12.88
2023-11-01T16:11:48.080Z,12.70
2023-11-01T16:14:16.089Z,12.60
2023-11-01T16:16:45.342Z,12.50
2023-11-01T16:19:12.929Z,12.49
2023-11-01T16:21:44.731Z,12.40
2023-11-01T16:24:13.315Z,12.34
2023-11-01T16:26:40.494Z,12.30
2023-11-01T16:29:07.265Z,12.32
2023-11-01T16:31:34.211Z,12.34
2023-11-01T16:34:00.977Z,12.31
2023-11-01T16:36:27.764Z,12.28
2023-11-01T16:38:54.526Z,12.23
2023-11-01T16:41:21.286Z,12.14
2023-11-01T16:43:47.939Z,11.99
2023-11-01T16:46:17.254Z,11.96
2023-11-01T16:48:44.514Z,11.91
2023-11-01T16:51:11.605Z,11.83
2023-11-01T16:53:38.677Z,11.81
2023-11-01T16:56:05.567Z,11.82
2023-11-01T16:58:32.526Z,11.81
2023-11-01T17:00:59.220Z,11.79
2023-11-01T17:03:26.096Z,11.77
2023-11-01T17:05:52.971Z,11.75
2023-11-01T17:08:19.692Z,11.74
2023-11-01T17:10:46.336Z,11.67
2023-11-01T17:13:13.109Z,11.64
2023-11-01T17:15:41.700Z,11.63
2023-11-01T17:18:08.547Z,11.55
2023-11-01T17:20:35.275Z,11.43
2023-11-01T17:23:03.849Z,11.26
2023-11-01T17:25:43.378Z,10.90
2023-11-01T17:28:21.860Z,10.76
2023-11-01T17:30:53.478Z,10.75
2023-11-01T17:33:29.225Z,10.75
2023-11-01T17:35:56.480Z,10.71
2023-11-01T17:38:41.999Z,10.69
2023-11-01T17:41:10.319Z,10.65
2023-11-01T17:43:51.786Z,10.67
2023-11-01T17:46:19.605Z,10.70
2023-11-01T17:48:47.009Z,10.64
2023-11-01T17:51:17.453Z,10.58
2023-11-01T17:53:44.191Z,10.50
2023-11-01T17:56:12.163Z,10.43
2023-11-01T17:58:38.999Z,10.37
2023-11-01T18:01:09.779Z,10.33
2023-11-01T18:03:37.710Z,10.25
2023-11-01T18:06:04.955Z,10.18
2023-11-01T18:08:33.726Z,10.15
2023-11-01T18:11:09.102Z,10.06
2023-11-01T18:13:37.034Z,9.98
2023-11-01T18:16:06.547Z,9.97
2023-11-01T18:18:49.728Z,9.89
2023-11-01T18:21:28.421Z,9.91
2023-11-01T18:24:03.252Z,9.85
2023-11-01T18:26:31.587Z,9.79
2023-11-01T18:29:09.855Z,9.76
2023-11-01T18:31:48.070Z,9.72
2023-11-01T18:34:16.875Z,9.67
2023-11-01T18:36:45.397Z,9.58
2023-11-01T18:39:12.616Z,9.57
2023-11-01T18:41:43.891Z,9.55
2023-11-01T18:44:24.939Z,9.56
2023-11-01T18:46:52.265Z,9.44
2023-11-01T18:49:49.937Z,9.51
2023-11-01T18:52:18.270Z,9.55
2023-11-01T18:54:47.967Z,9.58
2023-11-01T18:57:24.425Z,9.62
2023-11-01T18:59:51.212Z,9.60
2023-11-01T19:02:36.045Z,9.58
2023-11-01T19:05:06.229Z,9.65
2023-11-01T19:07:43.415Z,9.68
2023-11-01T19:10:12.824Z,9.75
2023-11-01T19:12:39.704Z,9.74
2023-11-01T19:15:08.833Z,9.67
2023-11-01T19:17:40.433Z,9.57
2023-11-01T19:20:07.358Z,9.55
2023-11-01T19:22:34.053Z,9.55
2023-11-01T19:25:00.756Z,9.55
2023-11-01T19:27:27.437Z,9.58
2023-11-01T19:29:54.111Z,9.61
2023-11-01T19:32:21.305Z,9.62
2023-11-01T19:34:47.828Z,9.67
2023-11-01T19:37:14.505Z,9.73
2023-11-01T19:39:42.099Z,9.80
2023-11-01T19:42:09.995Z,9.80
2023-11-01T19:44:36.791Z,9.77
2023-11-01T19:47:04.662Z,9.63
2023-11-01T19:49:31.276Z,9.51
2023-11-01T19:51:57.937Z,9.62
2023-11-01T19:54:26.164Z,9.61
2023-11-01T19:56:52.925Z,9.66
2023-11-01T19:59:19.620Z,9.71
2023-11-01T20:01:46.671Z,9.73
2023-11-01T20:04:13.354Z,9.75
2023-11-01T20:06:40.007Z,9.76
2023-11-01T20:09:08.603Z,9.80
2023-11-01T20:11:35.264Z,9.61
2023-11-01T20:14:02.407Z,9.67
2023-11-01T20:16:31.124Z,9.69
2023-11-01T20:18:58.205Z,9.74
2023-11-01T20:21:24.880Z,9.81
2023-11-01T20:23:51.742Z,9.80
2023-11-01T20:26:18.600Z,9.80
2023-11-01T20:28:45.267Z,9.77
2023-11-01T20:31:12.024Z,9.62
2023-11-01T20:33:38.918Z,9.39
2023-11-01T20:36:06.215Z,9.51
2023-11-01T20:38:34.126Z,9.55
2023-11-01T20:41:00.851Z,9.50
2023-11-01T20:43:29.812Z,9.57
2023-11-01T20:45:56.582Z,9.66
2023-11-01T20:48:23.400Z,9.58
2023-11-01T20:50:50.146Z,9.64
2023-11-01T20:53:17.708Z,9.71
2023-11-01T20:55:44.876Z,9.74
2023-11-01T20:58:11.537Z,9.72
2023-11-01T21:00:38.333Z,9.73
2023-11-01T21:03:05.962Z,9.51
2023-11-01T21:05:34.757Z,9.58
2023-11-01T21:08:01.791Z,9.67
2023-11-01T21:10:30.132Z,9.58
2023-11-01T21:12:57.051Z,9.60
2023-11-01T21:15:23.868Z,9.66
2023-11-01T21:17:51.283Z,9.67
2023-11-01T21:20:18.222Z,9.67
2023-11-01T21:22:44.933Z,9.60
2023-11-01T21:25:12.491Z,9.58
2023-11-01T21:27:39.118Z,9.53
2023-11-01T21:32:33.850Z,9.56
2023-11-01T21:35:02.795Z,9.49
2023-11-01T21:37:29.421Z,9.30
2023-11-01T21:39:56.287Z,9.21
2023-11-01T21:42:24.685Z,9.23
2023-11-01T21:44:51.632Z,9.28
2023-11-01T21:47:39.937Z,9.30
2023-11-01T21:50:18.787Z,9.32
2023-11-01T21:52:45.423Z,9.31
2023-11-01T21:55:51.108Z,9.26
2023-11-01T21:58:25.560Z,9.31
2023-11-01T22:00:53.094Z,9.30
2023-11-01T22:03:33.987Z,9.20
2023-11-01T22:06:05.249Z,8.99
2023-11-01T22:09:05.397Z,8.87
2023-11-01T22:11:34.762Z,8.80
2023-11-01T22:14:06.509Z,8.74
2023-11-01T22:16:34.917Z,8.80
2023-11-01T22:19:18.682Z,8.87
2023-11-01T22:21:45.908Z,8.84
2023-11-01T22:24:13.239Z,8.83
2023-11-01T22:26:44.249Z,8.89
2023-11-01T22:29:19.580Z,8.93
2023-11-01T22:31:53.720Z,8.89
2023-11-01T22:34:23.531Z,9.02
2023-11-01T22:36:52.427Z,9.11
2023-11-01T22:39:43.484Z,9.23
2023-11-01T22:42:12.398Z,9.30
2023-11-01T22:44:39.822Z,9.35
2023-11-01T22:47:06.574Z,9.43
2023-11-01T22:49:33.338Z,9.36
2023-11-01T22:52:01.880Z,9.23
2023-11-01T22:54:29.163Z,9.14
2023-11-01T22:56:56.209Z,9.11
2023-11-01T22:59:22.968Z,9.29
2023-11-01T23:01:51.208Z,9.46
2023-11-01T23:04:20.876Z,9.59
2023-11-01T23:06:48.513Z,9.62
2023-11-01T23:09:15.682Z,9.64
2023-11-01T23:11:42.596Z,9.69
2023-11-01T23:14:10.376Z,9.70
2023-11-01T23:16:41.034Z,9.72
2023-11-01T23:19:09.322Z,9.71
2023-11-01T23:21:36.941Z,9.62
2023-11-01T23:24:11.429Z,9.61
2023-11-01T23:26:38.026Z,9.59
2023-11-01T23:29:14.118Z,9.52
2023-11-01T23:31:47.658Z,9.39
2023-11-01T23:34:39.872Z,9.37
2023-11-01T23:37:36.557Z,9.31
2023-11-01T23:40:08.530Z,9.35
2023-11-01T23:42:35.414Z,9.37
2023-11-01T23:45:26.476Z,9.36
2023-11-01T23:47:54.406Z,9.33
2023-11-01T23:50:38.859Z,9.26
2023-11-01T23:53:07.567Z,9.21
2023-11-01T23:55:34.387Z,9.04
2023-11-01T23:58:01.761Z,8.76
